Terminal Aerodrome Forecast
Issued by NWS

Current Version | Previous Version | Text Only | Print | Product List | Glossary Off
Versions: 1 2 3 4 5 6 7 8 9 10 11 12 13 14 15 16 17 18 19 20 21

000
FTUS41 KPBZ 230800 AAA
TAFMGW
TAF AMD
KMGW 230804Z 2308/2406 VRB02KT P6SM OVC025
     FM231400 VRB03KT P6SM SCT025 OVC100
     FM232300 16003KT 3SM -RA OVC020=

USA.gov is the U.S. government's official web portal to all federal, state and local government web resources and services.